sensor_id;sensor_type;location;lat;lon;timestamp;temperature;humidity
10282;DHT22;5186;59.472;18.048;2023-03-01T00:01:59;2.50;99.90
10282;DHT22;5186;59.472;18.048;2023-03-01T00:04:24;2.40;99.90
10282;DHT22;5186;59.472;18.048;2023-03-01T00:06:50;2.40;99.90
10282;DHT22;5186;59.472;18.048;2023-03-01T00:09:16;2.30;99.90
10282;DHT22;5186;59.472;18.048;2023-03-01T00:11:43;2.30;99.90
10282;DHT22;5186;59.472;18.048;2023-03-01T00:14:08;2.20;99.90
10282;DHT22;5186;59.472;18.048;2023-03-01T00:16:37;2.10;99.90
10282;DHT22;5186;59.472;18.048;2023-03-01T00:19:15;2.10;99.90
10282;DHT22;5186;59.472;18.048;2023-03-01T00:21:40;2.00;99.90
10282;DHT22;5186;59.472;18.048;2023-03-01T00:24:07;2.00;99.90
10282;DHT22;5186;59.472;18.048;2023-03-01T00:26:33;1.90;99.90
10282;DHT22;5186;59.472;18.048;2023-03-01T00:28:59;1.90;99.90
10282;DHT22;5186;59.472;18.048;2023-03-01T00:31:30;1.90;99.90
10282;DHT22;5186;59.472;18.048;2023-03-01T00:33:59;1.80;99.90
10282;DHT22;5186;59.472;18.048;2023-03-01T00:36:27;1.70;99.90
10282;DHT22;5186;59.472;18.048;2023-03-01T00:38:52;1.70;99.90
10282;DHT22;5186;59.472;18.048;2023-03-01T00:41:19;1.60;99.90
10282;DHT22;5186;59.472;18.048;2023-03-01T00:43:45;1.60;99.90
10282;DHT22;5186;59.472;18.048;2023-03-01T00:46:16;1.60;99.90
10282;DHT22;5186;59.472;18.048;2023-03-01T00:48:41;1.50;99.90
10282;DHT22;5186;59.472;18.048;2023-03-01T00:51:09;1.50;99.90
10282;DHT22;5186;59.472;18.048;2023-03-01T00:53:35;1.40;99.90
10282;DHT22;5186;59.472;18.048;2023-03-01T00:56:02;1.40;99.90
10282;DHT22;5186;59.472;18.048;2023-03-01T00:58:28;1.40;99.90
10282;DHT22;5186;59.472;18.048;2023-03-01T01:00:53;1.30;99.90
10282;DHT22;5186;59.472;18.048;2023-03-01T01:03:19;1.30;99.90
10282;DHT22;5186;59.472;18.048;2023-03-01T01:05:45;1.20;99.90
10282;DHT22;5186;59.472;18.048;2023-03-01T01:08:11;1.20;99.90
10282;DHT22;5186;59.472;18.048;2023-03-01T01:10:37;1.20;99.90
10282;DHT22;5186;59.472;18.048;2023-03-01T01:13:03;1.20;99.90
10282;DHT22;5186;59.472;18.048;2023-03-01T01:15:32;1.10;99.90
10282;DHT22;5186;59.472;18.048;2023-03-01T01:17:58;1.10;99.90
10282;DHT22;5186;59.472;18.048;2023-03-01T01:20:24;1.10;99.90
10282;DHT22;5186;59.472;18.048;2023-03-01T01:22:49;1.00;99.90
10282;DHT22;5186;59.472;18.048;2023-03-01T01:25:16;1.00;99.90
10282;DHT22;5186;59.472;18.048;2023-03-01T01:27:42;1.00;99.90
10282;DHT22;5186;59.472;18.048;2023-03-01T01:30:08;0.90;99.90
10282;DHT22;5186;59.472;18.048;2023-03-01T01:32:34;0.90;99.90
10282;DHT22;5186;59.472;18.048;2023-03-01T01:34:59;0.90;99.90
10282;DHT22;5186;59.472;18.048;2023-03-01T01:37:25;0.90;99.90
10282;DHT22;5186;59.472;18.048;2023-03-01T01:39:57;0.90;99.90
10282;DHT22;5186;59.472;18.048;2023-03-01T01:42:23;0.90;99.90
10282;DHT22;5186;59.472;18.048;2023-03-01T01:47:47;0.80;99.90
10282;DHT22;5186;59.472;18.048;2023-03-01T01:50:17;0.80;99.90
10282;DHT22;5186;59.472;18.048;2023-03-01T01:52:43;0.80;99.90
10282;DHT22;5186;59.472;18.048;2023-03-01T01:55:18;0.80;99.90
10282;DHT22;5186;59.472;18.048;2023-03-01T01:57:50;0.80;99.90
10282;DHT22;5186;59.472;18.048;2023-03-01T02:00:20;0.80;99.90
10282;DHT22;5186;59.472;18.048;2023-03-01T02:02:47;0.80;99.90
10282;DHT22;5186;59.472;18.048;2023-03-01T02:05:38;0.80;99.90
10282;DHT22;5186;59.472;18.048;2023-03-01T02:08:05;0.80;99.90
10282;DHT22;5186;59.472;18.048;2023-03-01T02:10:33;0.80;99.90
10282;DHT22;5186;59.472;18.048;2023-03-01T02:13:00;0.80;99.90
10282;DHT22;5186;59.472;18.048;2023-03-01T02:15:26;0.70;99.90
10282;DHT22;5186;59.472;18.048;2023-03-01T02:17:53;0.70;99.90
10282;DHT22;5186;59.472;18.048;2023-03-01T02:23:17;0.70;99.90
10282;DHT22;5186;59.472;18.048;2023-03-01T02:25:58;0.70;99.90
10282;DHT22;5186;59.472;18.048;2023-03-01T02:28:35;0.60;99.90
10282;DHT22;5186;59.472;18.048;2023-03-01T02:31:01;0.60;99.90
10282;DHT22;5186;59.472;18.048;2023-03-01T02:33:47;0.60;99.90
10282;DHT22;5186;59.472;18.048;2023-03-01T02:36:20;0.60;99.90
10282;DHT22;5186;59.472;18.048;2023-03-01T02:38:48;0.50;99.90
10282;DHT22;5186;59.472;18.048;2023-03-01T02:41:17;0.60;99.90
10282;DHT22;5186;59.472;18.048;2023-03-01T02:43:44;0.60;99.90
10282;DHT22;5186;59.472;18.048;2023-03-01T02:46:20;0.60;99.90
10282;DHT22;5186;59.472;18.048;2023-03-01T02:48:50;0.50;99.90
10282;DHT22;5186;59.472;18.048;2023-03-01T02:56:19;0.50;99.90
10282;DHT22;5186;59.472;18.048;2023-03-01T02:58:45;0.50;99.90
10282;DHT22;5186;59.472;18.048;2023-03-01T03:01:13;0.50;99.90
10282;DHT22;5186;59.472;18.048;2023-03-01T03:03:41;0.50;99.90
10282;DHT22;5186;59.472;18.048;2023-03-01T03:06:07;0.50;99.90
10282;DHT22;5186;59.472;18.048;2023-03-01T03:08:32;0.50;99.90
10282;DHT22;5186;59.472;18.048;2023-03-01T03:10:58;0.40;99.90
10282;DHT22;5186;59.472;18.048;2023-03-01T03:13:23;0.40;99.90
10282;DHT22;5186;59.472;18.048;2023-03-01T03:15:54;0.50;99.90
10282;DHT22;5186;59.472;18.048;2023-03-01T03:18:21;0.50;99.90
10282;DHT22;5186;59.472;18.048;2023-03-01T03:20:47;0.40;99.90
10282;DHT22;5186;59.472;18.048;2023-03-01T03:23:13;0.40;99.90
10282;DHT22;5186;59.472;18.048;2023-03-01T03:25:39;0.40;99.90
10282;DHT22;5186;59.472;18.048;2023-03-01T03:28:06;0.40;99.90
10282;DHT22;5186;59.472;18.048;2023-03-01T03:30:36;0.40;99.90
10282;DHT22;5186;59.472;18.048;2023-03-01T03:33:04;0.30;99.90
10282;DHT22;5186;59.472;18.048;2023-03-01T03:35:39;0.30;99.90
10282;DHT22;5186;59.472;18.048;2023-03-01T03:38:08;0.30;99.90
10282;DHT22;5186;59.472;18.048;2023-03-01T03:40:42;0.20;99.90
10282;DHT22;5186;59.472;18.048;2023-03-01T03:43:11;0.30;99.90
10282;DHT22;5186;59.472;18.048;2023-03-01T03:45:37;0.20;99.90
10282;DHT22;5186;59.472;18.048;2023-03-01T03:48:05;0.20;99.90
10282;DHT22;5186;59.472;18.048;2023-03-01T03:50:31;0.20;99.90
10282;DHT22;5186;59.472;18.048;2023-03-01T03:52:57;0.20;99.90
10282;DHT22;5186;59.472;18.048;2023-03-01T03:55:23;0.20;99.90
10282;DHT22;5186;59.472;18.048;2023-03-01T03:57:53;0.20;99.90
10282;DHT22;5186;59.472;18.048;2023-03-01T04:00:21;0.20;99.90
10282;DHT22;5186;59.472;18.048;2023-03-01T04:02:48;0.10;99.90
10282;DHT22;5186;59.472;18.048;2023-03-01T04:05:16;0.10;99.90
10282;DHT22;5186;59.472;18.048;2023-03-01T04:07:42;0.10;99.90
10282;DHT22;5186;59.472;18.048;2023-03-01T04:10:11;0.10;99.90
10282;DHT22;5186;59.472;18.048;2023-03-01T04:12:37;0.00;99.90
10282;DHT22;5186;59.472;18.048;2023-03-01T04:15:05;0.00;99.90
10282;DHT22;5186;59.472;18.048;2023-03-01T04:17:44;-0.10;99.90
10282;DHT22;5186;59.472;18.048;2023-03-01T04:20:12;-0.10;99.90
10282;DHT22;5186;59.472;18.048;2023-03-01T04:22:39;-0.10;99.90
10282;DHT22;5186;59.472;18.048;2023-03-01T04:25:05;-0.20;99.90
10282;DHT22;5186;59.472;18.048;2023-03-01T04:27:35;-0.10;99.90
10282;DHT22;5186;59.472;18.048;2023-03-01T04:30:02;-0.10;99.90
10282;DHT22;5186;59.472;18.048;2023-03-01T04:32:28;-0.10;99.90
10282;DHT22;5186;59.472;18.048;2023-03-01T04:34:54;-0.10;99.90
10282;DHT22;5186;59.472;18.048;2023-03-01T04:37:19;-0.20;99.90
10282;DHT22;5186;59.472;18.048;2023-03-01T04:39:45;-0.20;99.90
10282;DHT22;5186;59.472;18.048;2023-03-01T04:42:11;-0.20;99.90
10282;DHT22;5186;59.472;18.048;2023-03-01T04:44:37;-0.20;99.90
10282;DHT22;5186;59.472;18.048;2023-03-01T04:47:03;-0.20;99.90
10282;DHT22;5186;59.472;18.048;2023-03-01T04:49:28;-0.20;99.90
10282;DHT22;5186;59.472;18.048;2023-03-01T04:51:54;-0.20;99.90
10282;DHT22;5186;59.472;18.048;2023-03-01T04:54:19;-0.20;99.90
10282;DHT22;5186;59.472;18.048;2023-03-01T04:56:45;-0.20;99.90
10282;DHT22;5186;59.472;18.048;2023-03-01T04:59:11;-0.30;99.90
10282;DHT22;5186;59.472;18.048;2023-03-01T05:01:38;-0.30;99.90
10282;DHT22;5186;59.472;18.048;2023-03-01T05:04:04;-0.30;99.90
10282;DHT22;5186;59.472;18.048;2023-03-01T05:06:31;-0.30;99.90
10282;DHT22;5186;59.472;18.048;2023-03-01T05:08:57;-0.30;99.90
10282;DHT22;5186;59.472;18.048;2023-03-01T05:11:23;-0.30;99.90
10282;DHT22;5186;59.472;18.048;2023-03-01T05:13:48;-0.40;99.90
10282;DHT22;5186;59.472;18.048;2023-03-01T05:16:20;-0.40;99.90
10282;DHT22;5186;59.472;18.048;2023-03-01T05:18:45;-0.50;99.90
10282;DHT22;5186;59.472;18.048;2023-03-01T05:21:13;-0.50;99.90
10282;DHT22;5186;59.472;18.048;2023-03-01T05:23:41;-0.50;99.90
10282;DHT22;5186;59.472;18.048;2023-03-01T05:26:08;-0.50;99.90
10282;DHT22;5186;59.472;18.048;2023-03-01T05:28:34;-0.50;99.90
10282;DHT22;5186;59.472;18.048;2023-03-01T05:31:00;-0.60;99.90
10282;DHT22;5186;59.472;18.048;2023-03-01T05:33:26;-0.60;99.90
10282;DHT22;5186;59.472;18.048;2023-03-01T05:35:52;-0.60;99.90
10282;DHT22;5186;59.472;18.048;2023-03-01T05:38:19;-0.70;99.90
10282;DHT22;5186;59.472;18.048;2023-03-01T05:40:47;-0.70;99.90
10282;DHT22;5186;59.472;18.048;2023-03-01T05:43:15;-0.70;99.90
10282;DHT22;5186;59.472;18.048;2023-03-01T05:45:41;-0.80;99.90
10282;DHT22;5186;59.472;18.048;2023-03-01T05:48:09;-0.70;99.90
10282;DHT22;5186;59.472;18.048;2023-03-01T05:50:37;-0.80;99.90
10282;DHT22;5186;59.472;18.048;2023-03-01T05:53:08;-0.80;99.90
10282;DHT22;5186;59.472;18.048;2023-03-01T05:55:35;-0.80;99.90
10282;DHT22;5186;59.472;18.048;2023-03-01T05:58:24;-0.80;99.90
10282;DHT22;5186;59.472;18.048;2023-03-01T06:00:49;-0.80;99.90
10282;DHT22;5186;59.472;18.048;2023-03-01T06:03:17;-0.80;99.90
10282;DHT22;5186;59.472;18.048;2023-03-01T06:05:43;-0.80;99.90
10282;DHT22;5186;59.472;18.048;2023-03-01T06:08:10;-0.80;99.90
10282;DHT22;5186;59.472;18.048;2023-03-01T06:10:36;-0.80;99.90
10282;DHT22;5186;59.472;18.048;2023-03-01T06:13:01;-0.80;99.90
10282;DHT22;5186;59.472;18.048;2023-03-01T06:15:27;-0.80;99.90
10282;DHT22;5186;59.472;18.048;2023-03-01T06:17:54;-0.80;99.90
10282;DHT22;5186;59.472;18.048;2023-03-01T06:20:23;-0.80;99.90
10282;DHT22;5186;59.472;18.048;2023-03-01T06:22:50;-0.80;99.90
10282;DHT22;5186;59.472;18.048;2023-03-01T06:25:18;-0.80;99.90
10282;DHT22;5186;59.472;18.048;2023-03-01T06:27:46;-0.80;99.90
10282;DHT22;5186;59.472;18.048;2023-03-01T06:30:13;-0.80;99.90
10282;DHT22;5186;59.472;18.048;2023-03-01T06:32:40;-0.80;99.90
10282;DHT22;5186;59.472;18.048;2023-03-01T06:35:07;-0.80;99.90
10282;DHT22;5186;59.472;18.048;2023-03-01T06:37:33;-0.80;99.90
10282;DHT22;5186;59.472;18.048;2023-03-01T06:39:59;-0.80;99.90
10282;DHT22;5186;59.472;18.048;2023-03-01T06:42:24;-0.70;99.90
10282;DHT22;5186;59.472;18.048;2023-03-01T06:44:50;-0.70;99.90
10282;DHT22;5186;59.472;18.048;2023-03-01T06:47:15;-0.70;99.90
10282;DHT22;5186;59.472;18.048;2023-03-01T06:49:41;-0.60;99.90
10282;DHT22;5186;59.472;18.048;2023-03-01T06:52:06;-0.60;99.90
10282;DHT22;5186;59.472;18.048;2023-03-01T06:54:32;-0.60;99.90
10282;DHT22;5186;59.472;18.048;2023-03-01T06:56:57;-0.60;99.90
10282;DHT22;5186;59.472;18.048;2023-03-01T06:59:23;-0.50;99.90
10282;DHT22;5186;59.472;18.048;2023-03-01T07:01:49;-0.40;99.90
10282;DHT22;5186;59.472;18.048;2023-03-01T07:04:14;-0.30;99.90
10282;DHT22;5186;59.472;18.048;2023-03-01T07:06:40;-0.20;99.90
10282;DHT22;5186;59.472;18.048;2023-03-01T07:09:06;-0.10;99.90
10282;DHT22;5186;59.472;18.048;2023-03-01T07:11:31;0.00;99.90
10282;DHT22;5186;59.472;18.048;2023-03-01T07:13:57;0.10;99.90
10282;DHT22;5186;59.472;18.048;2023-03-01T07:16:23;0.10;99.90
10282;DHT22;5186;59.472;18.048;2023-03-01T07:18:49;0.20;99.90
10282;DHT22;5186;59.472;18.048;2023-03-01T07:21:15;0.30;99.90
10282;DHT22;5186;59.472;18.048;2023-03-01T07:23:41;0.40;99.90
10282;DHT22;5186;59.472;18.048;2023-03-01T07:26:07;0.40;99.90
10282;DHT22;5186;59.472;18.048;2023-03-01T07:28:33;0.50;99.90
10282;DHT22;5186;59.472;18.048;2023-03-01T07:31:05;0.60;99.90
10282;DHT22;5186;59.472;18.048;2023-03-01T07:33:31;0.70;99.90
10282;DHT22;5186;59.472;18.048;2023-03-01T07:35:58;0.80;99.90
10282;DHT22;5186;59.472;18.048;2023-03-01T07:38:24;0.90;99.90
10282;DHT22;5186;59.472;18.048;2023-03-01T07:40:50;0.90;99.90
10282;DHT22;5186;59.472;18.048;2023-03-01T07:43:15;1.00;99.90
10282;DHT22;5186;59.472;18.048;2023-03-01T07:45:41;1.00;99.90
10282;DHT22;5186;59.472;18.048;2023-03-01T07:48:06;1.20;99.90
10282;DHT22;5186;59.472;18.048;2023-03-01T07:50:32;1.20;99.90
10282;DHT22;5186;59.472;18.048;2023-03-01T07:52:58;1.30;99.90
10282;DHT22;5186;59.472;18.048;2023-03-01T07:55:23;1.30;99.90
10282;DHT22;5186;59.472;18.048;2023-03-01T07:57:49;1.40;99.90
10282;DHT22;5186;59.472;18.048;2023-03-01T08:00:14;1.40;99.90
10282;DHT22;5186;59.472;18.048;2023-03-01T08:02:40;1.50;99.90
10282;DHT22;5186;59.472;18.048;2023-03-01T08:05:07;1.60;99.90
10282;DHT22;5186;59.472;18.048;2023-03-01T08:07:34;1.70;99.90
10282;DHT22;5186;59.472;18.048;2023-03-01T08:09:59;1.80;99.90
10282;DHT22;5186;59.472;18.048;2023-03-01T08:12:25;1.90;99.90
10282;DHT22;5186;59.472;18.048;2023-03-01T08:14:52;1.90;99.90
10282;DHT22;5186;59.472;18.048;2023-03-01T08:17:18;2.00;99.90
10282;DHT22;5186;59.472;18.048;2023-03-01T08:19:44;2.10;99.90
10282;DHT22;5186;59.472;18.048;2023-03-01T08:22:10;2.20;99.90
10282;DHT22;5186;59.472;18.048;2023-03-01T08:24:36;2.30;99.90
10282;DHT22;5186;59.472;18.048;2023-03-01T08:27:02;2.40;99.90
10282;DHT22;5186;59.472;18.048;2023-03-01T08:29:30;2.50;99.90
10282;DHT22;5186;59.472;18.048;2023-03-01T08:31:55;2.50;99.90
10282;DHT22;5186;59.472;18.048;2023-03-01T08:34:21;2.60;99.90
10282;DHT22;5186;59.472;18.048;2023-03-01T08:36:47;2.70;99.90
10282;DHT22;5186;59.472;18.048;2023-03-01T08:39:15;2.70;99.90
10282;DHT22;5186;59.472;18.048;2023-03-01T08:41:41;2.80;99.90
10282;DHT22;5186;59.472;18.048;2023-03-01T08:44:07;2.90;99.90
10282;DHT22;5186;59.472;18.048;2023-03-01T08:46:36;2.90;99.90
10282;DHT22;5186;59.472;18.048;2023-03-01T08:49:15;3.00;99.90
10282;DHT22;5186;59.472;18.048;2023-03-01T08:51:41;3.10;99.90
10282;DHT22;5186;59.472;18.048;2023-03-01T08:54:11;3.10;99.90
10282;DHT22;5186;59.472;18.048;2023-03-01T08:56:37;3.30;99.90
10282;DHT22;5186;59.472;18.048;2023-03-01T08:59:02;3.30;99.90
10282;DHT22;5186;59.472;18.048;2023-03-01T09:01:28;3.50;99.90
10282;DHT22;5186;59.472;18.048;2023-03-01T09:03:53;3.50;99.90
10282;DHT22;5186;59.472;18.048;2023-03-01T09:06:19;3.60;99.90
10282;DHT22;5186;59.472;18.048;2023-03-01T09:08:47;3.60;99.90
10282;DHT22;5186;59.472;18.048;2023-03-01T09:11:19;3.70;99.90
10282;DHT22;5186;59.472;18.048;2023-03-01T09:13:47;3.80;99.90
10282;DHT22;5186;59.472;18.048;2023-03-01T09:16:15;3.80;99.90
10282;DHT22;5186;59.472;18.048;2023-03-01T09:18:41;3.90;99.90
10282;DHT22;5186;59.472;18.048;2023-03-01T09:21:10;4.00;99.90
10282;DHT22;5186;59.472;18.048;2023-03-01T09:23:38;4.00;99.90
10282;DHT22;5186;59.472;18.048;2023-03-01T09:26:06;4.10;99.90
10282;DHT22;5186;59.472;18.048;2023-03-01T09:28:31;4.10;99.90
10282;DHT22;5186;59.472;18.048;2023-03-01T09:30:58;4.20;99.90
10282;DHT22;5186;59.472;18.048;2023-03-01T09:33:24;4.30;99.90
10282;DHT22;5186;59.472;18.048;2023-03-01T09:35:55;4.30;99.90
10282;DHT22;5186;59.472;18.048;2023-03-01T09:38:20;4.40;99.90
10282;DHT22;5186;59.472;18.048;2023-03-01T09:40:46;4.50;99.90
10282;DHT22;5186;59.472;18.048;2023-03-01T09:45:54;4.60;99.90
10282;DHT22;5186;59.472;18.048;2023-03-01T09:48:23;4.70;99.90
10282;DHT22;5186;59.472;18.048;2023-03-01T09:50:50;4.80;99.90
10282;DHT22;5186;59.472;18.048;2023-03-01T09:53:20;4.80;99.90
10282;DHT22;5186;59.472;18.048;2023-03-01T09:56:00;4.90;99.90
10282;DHT22;5186;59.472;18.048;2023-03-01T10:01:55;5.00;99.90
10282;DHT22;5186;59.472;18.048;2023-03-01T10:04:12;5.10;99.90
10282;DHT22;5186;59.472;18.048;2023-03-01T10:06:47;5.10;99.90
10282;DHT22;5186;59.472;18.048;2023-03-01T10:09:16;5.20;99.90
10282;DHT22;5186;59.472;18.048;2023-03-01T10:11:46;5.20;99.90
10282;DHT22;5186;59.472;18.048;2023-03-01T10:14:36;5.30;99.90
10282;DHT22;5186;59.472;18.048;2023-03-01T10:17:09;5.30;99.90
10282;DHT22;5186;59.472;18.048;2023-03-01T10:19:45;5.40;99.90
10282;DHT22;5186;59.472;18.048;2023-03-01T10:22:16;5.40;99.90
10282;DHT22;5186;59.472;18.048;2023-03-01T10:24:44;5.50;99.90
10282;DHT22;5186;59.472;18.048;2023-03-01T10:32:26;5.60;99.90
10282;DHT22;5186;59.472;18.048;2023-03-01T10:34:51;5.60;99.90
10282;DHT22;5186;59.472;18.048;2023-03-01T10:37:19;5.60;99.90
10282;DHT22;5186;59.472;18.048;2023-03-01T10:42:29;5.70;99.90
10282;DHT22;5186;59.472;18.048;2023-03-01T10:44:55;5.80;99.90
10282;DHT22;5186;59.472;18.048;2023-03-01T10:47:23;5.80;99.90
10282;DHT22;5186;59.472;18.048;2023-03-01T10:49:57;5.90;99.90
10282;DHT22;5186;59.472;18.048;2023-03-01T10:52:26;5.90;99.90
10282;DHT22;5186;59.472;18.048;2023-03-01T10:57:38;6.00;99.90
10282;DHT22;5186;59.472;18.048;2023-03-01T11:00:22;6.10;99.90
10282;DHT22;5186;59.472;18.048;2023-03-01T11:03:01;6.10;99.90
10282;DHT22;5186;59.472;18.048;2023-03-01T11:05:27;6.20;99.90
10282;DHT22;5186;59.472;18.048;2023-03-01T11:07:59;6.20;99.90
10282;DHT22;5186;59.472;18.048;2023-03-01T11:12:53;6.30;99.90
10282;DHT22;5186;59.472;18.048;2023-03-01T11:15:30;6.40;99.90
10282;DHT22;5186;59.472;18.048;2023-03-01T11:17:56;6.40;99.90
10282;DHT22;5186;59.472;18.048;2023-03-01T11:20:29;6.40;99.90
10282;DHT22;5186;59.472;18.048;2023-03-01T11:23:12;6.50;99.90
10282;DHT22;5186;59.472;18.048;2023-03-01T11:25:53;6.50;99.90
10282;DHT22;5186;59.472;18.048;2023-03-01T11:28:20;6.60;99.90
10282;DHT22;5186;59.472;18.048;2023-03-01T11:31:03;6.70;99.90
10282;DHT22;5186;59.472;18.048;2023-03-01T11:38:55;6.80;99.90
10282;DHT22;5186;59.472;18.048;2023-03-01T11:41:34;6.80;99.90
10282;DHT22;5186;59.472;18.048;2023-03-01T11:54:33;7.00;99.90
10282;DHT22;5186;59.472;18.048;2023-03-01T12:14:13;7.30;
10282;DHT22;5186;59.472;18.048;2023-03-01T12:22:33;7.40;99.90
10282;DHT22;5186;59.472;18.048;2023-03-01T12:41:44;7.70;99.90
10282;DHT22;5186;59.472;18.048;2023-03-01T12:49:48;7.80;99.90
10282;DHT22;5186;59.472;18.048;2023-03-01T12:52:21;7.80;99.90
10282;DHT22;5186;59.472;18.048;2023-03-01T12:54:49;7.80;99.90
10282;DHT22;5186;59.472;18.048;2023-03-01T12:57:18;7.90;99.90
10282;DHT22;5186;59.472;18.048;2023-03-01T13:00:00;7.90;99.90
10282;DHT22;5186;59.472;18.048;2023-03-01T13:02:48;8.00;99.90
10282;DHT22;5186;59.472;18.048;2023-03-01T13:08:19;8.00;99.90
10282;DHT22;5186;59.472;18.048;2023-03-01T13:10:53;8.10;99.90
10282;DHT22;5186;59.472;18.048;2023-03-01T13:13:23;8.10;99.90
10282;DHT22;5186;59.472;18.048;2023-03-01T13:15:50;8.20;99.90
10282;DHT22;5186;59.472;18.048;2023-03-01T13:20:45;8.20;99.90
10282;DHT22;5186;59.472;18.048;2023-03-01T13:26:14;8.30;99.90
10282;DHT22;5186;59.472;18.048;2023-03-01T13:33:51;8.40;99.90
10282;DHT22;5186;59.472;18.048;2023-03-01T13:38:55;8.40;99.90
10282;DHT22;5186;59.472;18.048;2023-03-01T13:47:02;8.50;99.90
10282;DHT22;5186;59.472;18.048;2023-03-01T13:49:53;8.50;99.90
10282;DHT22;5186;59.472;18.048;2023-03-01T13:52:35;8.60;99.90
10282;DHT22;5186;59.472;18.048;2023-03-01T13:55:05;8.60;99.90
10282;DHT22;5186;59.472;18.048;2023-03-01T13:57:37;8.60;99.90
10282;DHT22;5186;59.472;18.048;2023-03-01T14:00:05;8.60;99.90
10282;DHT22;5186;59.472;18.048;2023-03-01T14:02:31;8.60;99.90
10282;DHT22;5186;59.472;18.048;2023-03-01T14:05:00;8.70;99.90
10282;DHT22;5186;59.472;18.048;2023-03-01T14:07:27;8.70;99.90
10282;DHT22;5186;59.472;18.048;2023-03-01T14:10:00;8.80;99.90
10282;DHT22;5186;59.472;18.048;2023-03-01T14:13:00;8.80;99.90
10282;DHT22;5186;59.472;18.048;2023-03-01T14:15:36;8.80;99.90
10282;DHT22;5186;59.472;18.048;2023-03-01T14:18:29;8.80;99.90
10282;DHT22;5186;59.472;18.048;2023-03-01T14:20:57;8.80;99.90
10282;DHT22;5186;59.472;18.048;2023-03-01T14:23:23;8.80;99.90
10282;DHT22;5186;59.472;18.048;2023-03-01T14:25:54;8.80;99.90
10282;DHT22;5186;59.472;18.048;2023-03-01T14:30:52;8.80;99.90
10282;DHT22;5186;59.472;18.048;2023-03-01T14:33:36;8.80;99.90
10282;DHT22;5186;59.472;18.048;2023-03-01T14:36:12;8.80;99.90
10282;DHT22;5186;59.472;18.048;2023-03-01T14:38:40;8.80;99.90
10282;DHT22;5186;59.472;18.048;2023-03-01T14:41:10;8.80;99.90
10282;DHT22;5186;59.472;18.048;2023-03-01T14:43:43;8.80;99.90
10282;DHT22;5186;59.472;18.048;2023-03-01T14:46:30;8.80;99.90
10282;DHT22;5186;59.472;18.048;2023-03-01T14:49:02;8.80;99.90
10282;DHT22;5186;59.472;18.048;2023-03-01T14:51:28;8.80;99.90
10282;DHT22;5186;59.472;18.048;2023-03-01T14:53:54;8.80;99.90
10282;DHT22;5186;59.472;18.048;2023-03-01T14:56:20;8.70;99.90
10282;DHT22;5186;59.472;18.048;2023-03-01T14:58:46;8.70;99.90
10282;DHT22;5186;59.472;18.048;2023-03-01T15:01:16;8.70;99.90
10282;DHT22;5186;59.472;18.048;2023-03-01T15:03:45;8.70;99.90
10282;DHT22;5186;59.472;18.048;2023-03-01T15:06:17;8.70;99.90
10282;DHT22;5186;59.472;18.048;2023-03-01T15:08:46;8.70;99.90
10282;DHT22;5186;59.472;18.048;2023-03-01T15:13:53;8.60;99.90
10282;DHT22;5186;59.472;18.048;2023-03-01T15:16:21;8.60;99.90
10282;DHT22;5186;59.472;18.048;2023-03-01T15:19:03;8.60;99.90
10282;DHT22;5186;59.472;18.048;2023-03-01T15:21:37;8.50;99.90
10282;DHT22;5186;59.472;18.048;2023-03-01T15:24:13;8.50;99.90
10282;DHT22;5186;59.472;18.048;2023-03-01T15:29:24;8.40;99.90
10282;DHT22;5186;59.472;18.048;2023-03-01T15:32:03;8.30;99.90
10282;DHT22;5186;59.472;18.048;2023-03-01T15:34:37;8.30;99.90
10282;DHT22;5186;59.472;18.048;2023-03-01T15:37:05;8.30;99.90
10282;DHT22;5186;59.472;18.048;2023-03-01T15:39:38;8.30;99.90
10282;DHT22;5186;59.472;18.048;2023-03-01T15:42:13;8.20;99.90
10282;DHT22;5186;59.472;18.048;2023-03-01T15:47:48;8.30;99.90
10282;DHT22;5186;59.472;18.048;2023-03-01T15:50:27;8.30;99.90
10282;DHT22;5186;59.472;18.048;2023-03-01T15:52:53;8.20;99.90
10282;DHT22;5186;59.472;18.048;2023-03-01T15:55:25;8.20;99.90
10282;DHT22;5186;59.472;18.048;2023-03-01T15:58:18;8.20;99.90
10282;DHT22;5186;59.472;18.048;2023-03-01T16:00:46;8.10;99.90
10282;DHT22;5186;59.472;18.048;2023-03-01T16:03:14;8.00;99.90
10282;DHT22;5186;59.472;18.048;2023-03-01T16:05:47;8.00;99.90
10282;DHT22;5186;59.472;18.048;2023-03-01T16:08:13;8.10;99.90
10282;DHT22;5186;59.472;18.048;2023-03-01T16:10:39;8.00;99.90
10282;DHT22;5186;59.472;18.048;2023-03-01T16:13:05;8.00;99.90
10282;DHT22;5186;59.472;18.048;2023-03-01T16:15:33;8.00;99.90
10282;DHT22;5186;59.472;18.048;2023-03-01T16:18:00;8.00;99.90
10282;DHT22;5186;59.472;18.048;2023-03-01T16:20:27;8.00;99.90
10282;DHT22;5186;59.472;18.048;2023-03-01T16:22:53;8.00;99.90
10282;DHT22;5186;59.472;18.048;2023-03-01T16:25:20;7.90;99.90
10282;DHT22;5186;59.472;18.048;2023-03-01T16:27:49;7.90;99.90
10282;DHT22;5186;59.472;18.048;2023-03-01T16:30:17;7.90;99.90
10282;DHT22;5186;59.472;18.048;2023-03-01T16:32:45;7.90;99.90
10282;DHT22;5186;59.472;18.048;2023-03-01T16:35:13;7.90;99.90
10282;DHT22;5186;59.472;18.048;2023-03-01T16:37:39;7.90;99.90
10282;DHT22;5186;59.472;18.048;2023-03-01T16:40:14;7.90;99.90
10282;DHT22;5186;59.472;18.048;2023-03-01T16:42:41;7.90;99.90
10282;DHT22;5186;59.472;18.048;2023-03-01T16:45:08;7.80;99.90
10282;DHT22;5186;59.472;18.048;2023-03-01T16:47:34;7.80;99.90
10282;DHT22;5186;59.472;18.048;2023-03-01T16:49:59;7.80;99.90
10282;DHT22;5186;59.472;18.048;2023-03-01T16:52:25;7.70;99.90
10282;DHT22;5186;59.472;18.048;2023-03-01T16:54:51;7.70;99.90
10282;DHT22;5186;59.472;18.048;2023-03-01T16:57:17;7.60;99.90
10282;DHT22;5186;59.472;18.048;2023-03-01T16:59:42;7.60;99.90
10282;DHT22;5186;59.472;18.048;2023-03-01T17:02:12;7.60;99.90
10282;DHT22;5186;59.472;18.048;2023-03-01T17:04:40;7.60;99.90
10282;DHT22;5186;59.472;18.048;2023-03-01T17:07:06;7.60;99.90
10282;DHT22;5186;59.472;18.048;2023-03-01T17:09:36;7.50;99.90
10282;DHT22;5186;59.472;18.048;2023-03-01T17:12:05;7.50;99.90
10282;DHT22;5186;59.472;18.048;2023-03-01T17:14:30;7.40;99.90
10282;DHT22;5186;59.472;18.048;2023-03-01T17:16:56;7.40;99.90
10282;DHT22;5186;59.472;18.048;2023-03-01T17:19:22;7.30;99.90
10282;DHT22;5186;59.472;18.048;2023-03-01T17:21:47;7.30;99.90
10282;DHT22;5186;59.472;18.048;2023-03-01T17:24:13;7.20;99.90
10282;DHT22;5186;59.472;18.048;2023-03-01T17:26:39;7.20;99.90
10282;DHT22;5186;59.472;18.048;2023-03-01T17:29:05;7.20;99.90
10282;DHT22;5186;59.472;18.048;2023-03-01T17:31:32;7.10;99.90
10282;DHT22;5186;59.472;18.048;2023-03-01T17:33:58;7.20;99.90
10282;DHT22;5186;59.472;18.048;2023-03-01T17:36:23;7.10;99.90
10282;DHT22;5186;59.472;18.048;2023-03-01T17:38:50;7.10;99.90
10282;DHT22;5186;59.472;18.048;2023-03-01T17:41:16;7.10;99.90
10282;DHT22;5186;59.472;18.048;2023-03-01T17:43:44;7.10;99.90
10282;DHT22;5186;59.472;18.048;2023-03-01T17:46:09;7.10;99.90
10282;DHT22;5186;59.472;18.048;2023-03-01T17:48:36;7.10;99.90
10282;DHT22;5186;59.472;18.048;2023-03-01T17:51:07;7.10;99.90
10282;DHT22;5186;59.472;18.048;2023-03-01T17:53:34;7.10;99.90
10282;DHT22;5186;59.472;18.048;2023-03-01T17:56:01;7.10;99.90